sensor_id;sensor_type;location;lat;lon;timestamp;P1;durP1;ratioP1;P2;durP2;ratioP2
12878;SDS011;20617;49.476;10.986;2022-09-12T00:00:25;6.20;;;5.60;;
12878;SDS011;20617;49.476;10.986;2022-09-12T00:02:35;6.07;;;5.47;;
12878;SDS011;20617;49.476;10.986;2022-09-12T00:04:40;6.63;;;5.93;;
12878;SDS011;20617;49.476;10.986;2022-09-12T00:06:45;6.53;;;5.80;;
12878;SDS011;20617;49.476;10.986;2022-09-12T00:08:50;6.28;;;5.47;;
12878;SDS011;20617;49.476;10.986;2022-09-12T00:10:57;6.10;;;5.50;;
12878;SDS011;20617;49.476;10.986;2022-09-12T00:13:09;6.18;;;5.57;;
12878;SDS011;20617;49.476;10.986;2022-09-12T00:15:14;5.28;;;4.78;;
12878;SDS011;20617;49.476;10.986;2022-09-12T00:17:19;5.85;;;5.25;;
12878;SDS011;20617;49.476;10.986;2022-09-12T00:19:27;5.80;;;4.90;;
12878;SDS011;20617;49.476;10.986;2022-09-12T00:21:34;5.80;;;5.20;;
12878;SDS011;20617;49.476;10.986;2022-09-12T00:23:41;5.88;;;5.30;;
12878;SDS011;20617;49.476;10.986;2022-09-12T00:25:46;5.25;;;4.25;;
12878;SDS011;20617;49.476;10.986;2022-09-12T00:27:51;5.32;;;4.82;;
12878;SDS011;20617;49.476;10.986;2022-09-12T00:29:56;4.90;;;4.40;;
12878;SDS011;20617;49.476;10.986;2022-09-12T00:32:01;5.53;;;5.03;;
12878;SDS011;20617;49.476;10.986;2022-09-12T00:34:06;5.43;;;4.80;;
12878;SDS011;20617;49.476;10.986;2022-09-12T00:36:14;5.03;;;4.53;;
12878;SDS011;20617;49.476;10.986;2022-09-12T00:38:20;4.97;;;4.47;;
12878;SDS011;20617;49.476;10.986;2022-09-12T00:40:25;4.97;;;4.57;;
12878;SDS011;20617;49.476;10.986;2022-09-12T00:42:30;4.78;;;4.38;;
12878;SDS011;20617;49.476;10.986;2022-09-12T00:44:46;7.30;;;5.03;;
12878;SDS011;20617;49.476;10.986;2022-09-12T00:46:53;5.88;;;4.95;;
12878;SDS011;20617;49.476;10.986;2022-09-12T00:49:02;5.25;;;4.75;;
12878;SDS011;20617;49.476;10.986;2022-09-12T00:51:13;7.43;;;4.85;;
12878;SDS011;20617;49.476;10.986;2022-09-12T00:53:19;4.65;;;4.25;;
12878;SDS011;20617;49.476;10.986;2022-09-12T00:55:25;5.90;;;5.28;;
12878;SDS011;20617;49.476;10.986;2022-09-12T00:57:35;5.07;;;4.40;;
12878;SDS011;20617;49.476;10.986;2022-09-12T00:59:45;5.28;;;3.80;;
12878;SDS011;20617;49.476;10.986;2022-09-12T01:01:52;5.85;;;4.15;;
12878;SDS011;20617;49.476;10.986;2022-09-12T01:03:59;4.15;;;3.75;;
12878;SDS011;20617;49.476;10.986;2022-09-12T01:06:06;4.57;;;4.18;;
12878;SDS011;20617;49.476;10.986;2022-09-12T01:08:17;6.78;;;5.00;;
12878;SDS011;20617;49.476;10.986;2022-09-12T01:10:23;4.47;;;4.07;;
12878;SDS011;20617;49.476;10.986;2022-09-12T01:12:28;5.63;;;5.13;;
12878;SDS011;20617;49.476;10.986;2022-09-12T01:14:34;4.57;;;4.10;;
12878;SDS011;20617;49.476;10.986;2022-09-12T01:16:40;4.65;;;4.22;;
12878;SDS011;20617;49.476;10.986;2022-09-12T01:18:52;4.53;;;4.13;;
12878;SDS011;20617;49.476;10.986;2022-09-12T01:21:10;5.47;;;4.97;;
12878;SDS011;20617;49.476;10.986;2022-09-12T01:29:13;4.97;;;4.50;;
12878;SDS011;20617;49.476;10.986;2022-09-12T01:31:39;5.03;;;4.32;;
12878;SDS011;20617;49.476;10.986;2022-09-12T01:33:52;5.63;;;4.28;;
12878;SDS011;20617;49.476;10.986;2022-09-12T01:36:14;6.05;;;4.80;;
12878;SDS011;20617;49.476;10.986;2022-09-12T01:38:40;6.22;;;4.63;;
12878;SDS011;20617;49.476;10.986;2022-09-12T01:40:52;4.40;;;4.00;;
12878;SDS011;20617;49.476;10.986;2022-09-12T01:43:03;5.03;;;4.15;;
12878;SDS011;20617;49.476;10.986;2022-09-12T01:45:17;8.00;;;5.60;;
12878;SDS011;20617;49.476;10.986;2022-09-12T01:47:32;5.57;;;5.07;;
12878;SDS011;20617;49.476;10.986;2022-09-12T01:49:44;6.00;;;5.47;;
12878;SDS011;20617;49.476;10.986;2022-09-12T01:51:57;5.13;;;4.45;;
12878;SDS011;20617;49.476;10.986;2022-09-12T01:54:08;5.03;;;4.35;;
12878;SDS011;20617;49.476;10.986;2022-09-12T01:56:17;4.50;;;4.10;;
12878;SDS011;20617;49.476;10.986;2022-09-12T01:58:27;6.63;;;4.80;;
12878;SDS011;20617;49.476;10.986;2022-09-12T02:00:39;4.82;;;4.28;;
12878;SDS011;20617;49.476;10.986;2022-09-12T02:02:53;8.15;;;4.57;;
12878;SDS011;20617;49.476;10.986;2022-09-12T02:05:05;5.50;;;4.32;;
12878;SDS011;20617;49.476;10.986;2022-09-12T02:07:13;4.53;;;4.13;;
12878;SDS011;20617;49.476;10.986;2022-09-12T02:09:24;4.95;;;4.43;;
12878;SDS011;20617;49.476;10.986;2022-09-12T02:11:33;6.20;;;4.18;;
12878;SDS011;20617;49.476;10.986;2022-09-12T02:13:43;4.50;;;3.83;;
12878;SDS011;20617;49.476;10.986;2022-09-12T02:15:55;4.05;;;3.55;;
12878;SDS011;20617;49.476;10.986;2022-09-12T02:18:09;5.53;;;3.60;;
12878;SDS011;20617;49.476;10.986;2022-09-12T02:20:19;3.70;;;3.40;;
12878;SDS011;20617;49.476;10.986;2022-09-12T02:22:47;3.70;;;3.40;;
12878;SDS011;20617;49.476;10.986;2022-09-12T02:24:56;4.35;;;3.95;;
12878;SDS011;20617;49.476;10.986;2022-09-12T02:27:04;3.88;;;3.45;;
12878;SDS011;20617;49.476;10.986;2022-09-12T02:29:13;4.35;;;3.00;;
12878;SDS011;20617;49.476;10.986;2022-09-12T02:33:29;3.95;;;3.55;;
12878;SDS011;20617;49.476;10.986;2022-09-12T02:37:51;6.47;;;5.57;;
12878;SDS011;20617;49.476;10.986;2022-09-12T02:40:01;4.53;;;4.10;;
12878;SDS011;20617;49.476;10.986;2022-09-12T02:42:07;5.32;;;3.55;;
12878;SDS011;20617;49.476;10.986;2022-09-12T02:44:12;4.47;;;3.75;;
12878;SDS011;20617;49.476;10.986;2022-09-12T02:46:17;4.00;;;3.60;;
12878;SDS011;20617;49.476;10.986;2022-09-12T02:48:30;4.28;;;3.88;;
12878;SDS011;20617;49.476;10.986;2022-09-12T02:50:42;3.75;;;3.35;;
12878;SDS011;20617;49.476;10.986;2022-09-12T02:52:47;3.63;;;3.30;;
12878;SDS011;20617;49.476;10.986;2022-09-12T02:54:54;3.90;;;3.60;;
12878;SDS011;20617;49.476;10.986;2022-09-12T02:57:00;3.33;;;3.03;;
12878;SDS011;20617;49.476;10.986;2022-09-12T02:59:05;3.78;;;3.42;;
12878;SDS011;20617;49.476;10.986;2022-09-12T03:01:15;3.85;;;3.55;;
12878;SDS011;20617;49.476;10.986;2022-09-12T03:03:43;4.13;;;3.72;;
12878;SDS011;20617;49.476;10.986;2022-09-12T03:06:00;3.92;;;3.38;;
12878;SDS011;20617;49.476;10.986;2022-09-12T03:08:19;4.00;;;3.60;;
12878;SDS011;20617;49.476;10.986;2022-09-12T03:10:36;3.75;;;3.45;;
12878;SDS011;20617;49.476;10.986;2022-09-12T03:12:51;4.38;;;3.83;;
12878;SDS011;20617;49.476;10.986;2022-09-12T03:15:10;3.60;;;3.30;;
12878;SDS011;20617;49.476;10.986;2022-09-12T03:17:23;3.85;;;3.50;;
12878;SDS011;20617;49.476;10.986;2022-09-12T03:19:43;3.72;;;3.33;;
12878;SDS011;20617;49.476;10.986;2022-09-12T03:22:00;3.38;;;3.08;;
12878;SDS011;20617;49.476;10.986;2022-09-12T03:24:13;2.55;;;2.35;;
12878;SDS011;20617;49.476;10.986;2022-09-12T03:26:23;3.28;;;2.75;;
12878;SDS011;20617;49.476;10.986;2022-09-12T03:28:34;3.90;;;3.38;;
12878;SDS011;20617;49.476;10.986;2022-09-12T03:30:41;4.00;;;3.60;;
12878;SDS011;20617;49.476;10.986;2022-09-12T03:32:49;6.22;;;3.90;;
12878;SDS011;20617;49.476;10.986;2022-09-12T03:34:57;4.30;;;3.53;;
12878;SDS011;20617;49.476;10.986;2022-09-12T03:37:02;3.67;;;3.38;;
12878;SDS011;20617;49.476;10.986;2022-09-12T03:39:07;4.07;;;3.20;;
12878;SDS011;20617;49.476;10.986;2022-09-12T03:41:12;4.03;;;3.63;;
12878;SDS011;20617;49.476;10.986;2022-09-12T03:43:17;5.55;;;4.07;;
12878;SDS011;20617;49.476;10.986;2022-09-12T03:47:26;4.18;;;3.78;;
12878;SDS011;20617;49.476;10.986;2022-09-12T03:49:31;4.28;;;3.42;;
12878;SDS011;20617;49.476;10.986;2022-09-12T03:51:39;4.03;;;3.38;;
12878;SDS011;20617;49.476;10.986;2022-09-12T03:53:44;3.90;;;3.50;;
12878;SDS011;20617;49.476;10.986;2022-09-12T03:55:49;3.50;;;3.20;;
12878;SDS011;20617;49.476;10.986;2022-09-12T03:57:54;4.13;;;3.72;;
12878;SDS011;20617;49.476;10.986;2022-09-12T03:59:59;4.00;;;3.60;;
12878;SDS011;20617;49.476;10.986;2022-09-12T04:02:12;3.40;;;3.10;;
12878;SDS011;20617;49.476;10.986;2022-09-12T04:04:17;2.97;;;2.70;;
12878;SDS011;20617;49.476;10.986;2022-09-12T04:06:22;3.40;;;3.10;;
12878;SDS011;20617;49.476;10.986;2022-09-12T04:08:29;3.67;;;3.38;;
12878;SDS011;20617;49.476;10.986;2022-09-12T04:10:34;3.55;;;3.20;;
12878;SDS011;20617;49.476;10.986;2022-09-12T04:12:39;3.63;;;2.97;;
12878;SDS011;20617;49.476;10.986;2022-09-12T04:14:44;3.72;;;3.42;;
12878;SDS011;20617;49.476;10.986;2022-09-12T04:18:54;4.10;;;3.70;;
12878;SDS011;20617;49.476;10.986;2022-09-12T04:21:02;4.25;;;3.88;;
12878;SDS011;20617;49.476;10.986;2022-09-12T04:23:07;4.03;;;3.63;;
12878;SDS011;20617;49.476;10.986;2022-09-12T04:25:14;4.55;;;4.15;;
12878;SDS011;20617;49.476;10.986;2022-09-12T04:27:19;4.43;;;4.03;;
12878;SDS011;20617;49.476;10.986;2022-09-12T04:29:24;4.30;;;3.90;;
12878;SDS011;20617;49.476;10.986;2022-09-12T04:31:30;5.15;;;4.65;;
12878;SDS011;20617;49.476;10.986;2022-09-12T04:33:34;5.15;;;4.65;;
12878;SDS011;20617;49.476;10.986;2022-09-12T04:35:40;6.93;;;5.35;;
12878;SDS011;20617;49.476;10.986;2022-09-12T04:37:45;8.10;;;6.30;;
12878;SDS011;20617;49.476;10.986;2022-09-12T04:39:50;5.93;;;5.43;;
12878;SDS011;20617;49.476;10.986;2022-09-12T04:42:01;6.13;;;5.53;;
12878;SDS011;20617;49.476;10.986;2022-09-12T04:44:06;5.72;;;5.22;;
12878;SDS011;20617;49.476;10.986;2022-09-12T04:46:15;6.68;;;5.97;;
12878;SDS011;20617;49.476;10.986;2022-09-12T04:48:20;5.97;;;5.38;;
12878;SDS011;20617;49.476;10.986;2022-09-12T04:50:25;6.32;;;5.70;;
12878;SDS011;20617;49.476;10.986;2022-09-12T04:52:30;6.38;;;5.72;;
12878;SDS011;20617;49.476;10.986;2022-09-12T04:54:35;6.68;;;5.70;;
12878;SDS011;20617;49.476;10.986;2022-09-12T04:56:41;7.75;;;6.95;;
12878;SDS011;20617;49.476;10.986;2022-09-12T04:58:51;8.02;;;7.22;;
12878;SDS011;20617;49.476;10.986;2022-09-12T05:00:56;8.50;;;7.70;;
12878;SDS011;20617;49.476;10.986;2022-09-12T05:03:07;9.98;;;7.40;;
12878;SDS011;20617;49.476;10.986;2022-09-12T05:07:17;8.32;;;7.18;;
12878;SDS011;20617;49.476;10.986;2022-09-12T05:09:22;7.95;;;6.70;;
12878;SDS011;20617;49.476;10.986;2022-09-12T05:11:28;7.40;;;6.55;;
12878;SDS011;20617;49.476;10.986;2022-09-12T05:13:57;7.97;;;6.07;;
12878;SDS011;20617;49.476;10.986;2022-09-12T05:16:02;7.18;;;6.47;;
12878;SDS011;20617;49.476;10.986;2022-09-12T05:18:09;6.63;;;6.03;;
12878;SDS011;20617;49.476;10.986;2022-09-12T05:20:14;6.85;;;6.15;;
12878;SDS011;20617;49.476;10.986;2022-09-12T05:22:19;9.80;;;6.90;;
12878;SDS011;20617;49.476;10.986;2022-09-12T05:24:24;7.30;;;6.60;;
12878;SDS011;20617;49.476;10.986;2022-09-12T05:26:29;6.97;;;6.28;;
12878;SDS011;20617;49.476;10.986;2022-09-12T05:28:35;18.33;;;8.07;;
12878;SDS011;20617;49.476;10.986;2022-09-12T05:30:44;8.20;;;6.43;;
12878;SDS011;20617;49.476;10.986;2022-09-12T05:32:52;6.97;;;6.28;;
12878;SDS011;20617;49.476;10.986;2022-09-12T05:34:56;6.32;;;5.72;;
12878;SDS011;20617;49.476;10.986;2022-09-12T05:37:01;6.55;;;5.88;;
12878;SDS011;20617;49.476;10.986;2022-09-12T05:41:12;7.35;;;6.45;;
12878;SDS011;20617;49.476;10.986;2022-09-12T05:43:24;7.45;;;6.65;;
12878;SDS011;20617;49.476;10.986;2022-09-12T05:45:29;8.48;;;7.40;;
12878;SDS011;20617;49.476;10.986;2022-09-12T05:47:38;9.13;;;7.65;;
12878;SDS011;20617;49.476;10.986;2022-09-12T05:49:44;10.73;;;9.38;;
12878;SDS011;20617;49.476;10.986;2022-09-12T05:51:51;9.40;;;8.40;;
12878;SDS011;20617;49.476;10.986;2022-09-12T05:53:57;17.85;;;9.88;;
12878;SDS011;20617;49.476;10.986;2022-09-12T05:56:04;11.98;;;9.80;;
12878;SDS011;20617;49.476;10.986;2022-09-12T05:58:10;13.05;;;9.93;;
12878;SDS011;20617;49.476;10.986;2022-09-12T06:00:15;13.25;;;9.48;;
12878;SDS011;20617;49.476;10.986;2022-09-12T06:02:21;11.57;;;9.05;;
12878;SDS011;20617;49.476;10.986;2022-09-12T06:04:29;11.50;;;8.68;;
12878;SDS011;20617;49.476;10.986;2022-09-12T06:06:35;14.85;;;10.70;;
12878;SDS011;20617;49.476;10.986;2022-09-12T06:08:43;12.75;;;9.85;;
12878;SDS011;20617;49.476;10.986;2022-09-12T06:10:49;16.85;;;12.07;;
12878;SDS011;20617;49.476;10.986;2022-09-12T06:12:53;17.55;;;11.75;;
12878;SDS011;20617;49.476;10.986;2022-09-12T06:14:58;24.80;;;14.75;;
12878;SDS011;20617;49.476;10.986;2022-09-12T06:17:03;20.30;;;13.02;;
12878;SDS011;20617;49.476;10.986;2022-09-12T06:19:11;21.13;;;14.52;;
12878;SDS011;20617;49.476;10.986;2022-09-12T06:21:21;21.00;;;12.30;;
12878;SDS011;20617;49.476;10.986;2022-09-12T06:23:27;20.80;;;12.07;;
12878;SDS011;20617;49.476;10.986;2022-09-12T06:25:31;23.27;;;13.68;;
12878;SDS011;20617;49.476;10.986;2022-09-12T06:27:36;27.95;;;15.88;;
12878;SDS011;20617;49.476;10.986;2022-09-12T06:29:41;24.75;;;14.60;;
12878;SDS011;20617;49.476;10.986;2022-09-12T06:33:52;25.48;;;15.27;;
12878;SDS011;20617;49.476;10.986;2022-09-12T06:36:01;26.92;;;16.58;;
12878;SDS011;20617;49.476;10.986;2022-09-12T06:38:15;26.65;;;17.17;;
12878;SDS011;20617;49.476;10.986;2022-09-12T06:40:20;22.70;;;15.18;;
12878;SDS011;20617;49.476;10.986;2022-09-12T06:42:25;28.65;;;17.08;;
12878;SDS011;20617;49.476;10.986;2022-09-12T06:44:30;31.60;;;18.25;;
12878;SDS011;20617;49.476;10.986;2022-09-12T06:46:35;20.92;;;14.15;;
12878;SDS011;20617;49.476;10.986;2022-09-12T06:48:40;20.88;;;15.27;;
12878;SDS011;20617;49.476;10.986;2022-09-12T06:50:53;19.48;;;14.48;;
12878;SDS011;20617;49.476;10.986;2022-09-12T06:52:58;24.25;;;16.08;;
12878;SDS011;20617;49.476;10.986;2022-09-12T06:55:06;20.63;;;14.35;;
12878;SDS011;20617;49.476;10.986;2022-09-12T06:57:11;15.05;;;11.75;;
12878;SDS011;20617;49.476;10.986;2022-09-12T06:59:18;24.70;;;14.60;;
12878;SDS011;20617;49.476;10.986;2022-09-12T07:01:23;12.77;;;10.75;;
12878;SDS011;20617;49.476;10.986;2022-09-12T07:03:30;14.23;;;10.82;;
12878;SDS011;20617;49.476;10.986;2022-09-12T07:05:35;15.13;;;12.55;;
12878;SDS011;20617;49.476;10.986;2022-09-12T07:07:40;14.30;;;11.80;;
12878;SDS011;20617;49.476;10.986;2022-09-12T07:09:45;15.90;;;13.07;;
12878;SDS011;20617;49.476;10.986;2022-09-12T07:11:53;16.95;;;13.23;;
12878;SDS011;20617;49.476;10.986;2022-09-12T07:13:58;15.57;;;12.98;;
12878;SDS011;20617;49.476;10.986;2022-09-12T07:16:04;13.48;;;11.82;;
12878;SDS011;20617;49.476;10.986;2022-09-12T07:18:10;15.20;;;11.77;;
12878;SDS011;20617;49.476;10.986;2022-09-12T07:20:15;13.00;;;11.70;;
12878;SDS011;20617;49.476;10.986;2022-09-12T07:22:20;12.60;;;11.30;;
12878;SDS011;20617;49.476;10.986;2022-09-12T07:24:25;14.73;;;11.98;;
12878;SDS011;20617;49.476;10.986;2022-09-12T07:26:29;12.80;;;10.60;;
12878;SDS011;20617;49.476;10.986;2022-09-12T07:28:37;13.35;;;11.93;;
12878;SDS011;20617;49.476;10.986;2022-09-12T07:30:42;15.20;;;10.85;;
12878;SDS011;20617;49.476;10.986;2022-09-12T07:32:50;12.20;;;10.90;;
12878;SDS011;20617;49.476;10.986;2022-09-12T07:34:55;11.88;;;10.57;;
12878;SDS011;20617;49.476;10.986;2022-09-12T07:37:00;12.55;;;11.25;;
12878;SDS011;20617;49.476;10.986;2022-09-12T07:39:05;14.50;;;12.95;;
12878;SDS011;20617;49.476;10.986;2022-09-12T07:41:10;19.70;;;14.95;;
12878;SDS011;20617;49.476;10.986;2022-09-12T07:45:22;15.05;;;13.50;;
12878;SDS011;20617;49.476;10.986;2022-09-12T07:47:27;18.38;;;14.55;;
12878;SDS011;20617;49.476;10.986;2022-09-12T07:49:32;18.23;;;14.20;;
12878;SDS011;20617;49.476;10.986;2022-09-12T07:51:37;14.05;;;12.35;;
12878;SDS011;20617;49.476;10.986;2022-09-12T07:53:41;17.10;;;13.07;;
12878;SDS011;20617;49.476;10.986;2022-09-12T07:55:51;15.95;;;14.32;;
12878;SDS011;20617;49.476;10.986;2022-09-12T07:57:56;16.33;;;14.25;;
12878;SDS011;20617;49.476;10.986;2022-09-12T08:00:02;15.05;;;13.52;;
12878;SDS011;20617;49.476;10.986;2022-09-12T08:02:15;13.15;;;11.85;;
12878;SDS011;20617;49.476;10.986;2022-09-12T08:04:20;13.48;;;11.95;;
12878;SDS011;20617;49.476;10.986;2022-09-12T08:06:26;14.18;;;12.68;;
12878;SDS011;20617;49.476;10.986;2022-09-12T08:08:32;15.70;;;14.15;;
12878;SDS011;20617;49.476;10.986;2022-09-12T08:10:37;15.82;;;14.13;;
12878;SDS011;20617;49.476;10.986;2022-09-12T08:12:42;15.95;;;14.35;;
12878;SDS011;20617;49.476;10.986;2022-09-12T08:14:49;13.60;;;12.23;;
12878;SDS011;20617;49.476;10.986;2022-09-12T08:16:54;14.73;;;11.75;;
12878;SDS011;20617;49.476;10.986;2022-09-12T08:19:02;14.40;;;12.98;;
12878;SDS011;20617;49.476;10.986;2022-09-12T08:21:09;13.63;;;12.15;;
12878;SDS011;20617;49.476;10.986;2022-09-12T08:23:18;16.77;;;14.05;;
12878;SDS011;20617;49.476;10.986;2022-09-12T08:25:24;16.42;;;13.82;;
12878;SDS011;20617;49.476;10.986;2022-09-12T08:29:33;18.05;;;15.25;;
12878;SDS011;20617;49.476;10.986;2022-09-12T08:31:38;14.45;;;13.00;;
12878;SDS011;20617;49.476;10.986;2022-09-12T08:33:43;12.25;;;11.05;;
12878;SDS011;20617;49.476;10.986;2022-09-12T08:35:53;15.60;;;14.05;;
12878;SDS011;20617;49.476;10.986;2022-09-12T08:38:06;14.50;;;13.00;;
12878;SDS011;20617;49.476;10.986;2022-09-12T08:40:13;14.77;;;13.20;;
12878;SDS011;20617;49.476;10.986;2022-09-12T08:42:22;13.00;;;11.63;;
12878;SDS011;20617;49.476;10.986;2022-09-12T08:44:42;12.23;;;10.90;;
12878;SDS011;20617;49.476;10.986;2022-09-12T08:47:07;14.88;;;13.25;;
12878;SDS011;20617;49.476;10.986;2022-09-12T08:49:20;14.55;;;13.05;;
12878;SDS011;20617;49.476;10.986;2022-09-12T08:51:34;14.65;;;13.15;;
12878;SDS011;20617;49.476;10.986;2022-09-12T08:53:40;15.10;;;13.57;;
12878;SDS011;20617;49.476;10.986;2022-09-12T08:55:51;14.15;;;12.57;;
12878;SDS011;20617;49.476;10.986;2022-09-12T08:58:00;13.18;;;11.77;;
12878;SDS011;20617;49.476;10.986;2022-09-12T09:00:11;18.85;;;15.07;;
12878;SDS011;20617;49.476;10.986;2022-09-12T09:02:23;15.65;;;14.05;;
12878;SDS011;20617;49.476;10.986;2022-09-12T09:04:49;21.00;;;15.57;;
12878;SDS011;20617;49.476;10.986;2022-09-12T09:07:11;16.02;;;12.45;;
12878;SDS011;20617;49.476;10.986;2022-09-12T09:09:29;17.70;;;14.77;;
12878;SDS011;20617;49.476;10.986;2022-09-12T09:11:49;16.10;;;13.88;;
12878;SDS011;20617;49.476;10.986;2022-09-12T09:14:03;15.43;;;13.90;;
12878;SDS011;20617;49.476;10.986;2022-09-12T09:16:32;14.35;;;12.85;;
12878;SDS011;20617;49.476;10.986;2022-09-12T09:18:39;12.48;;;11.18;;
12878;SDS011;20617;49.476;10.986;2022-09-12T09:20:48;14.38;;;12.88;;
12878;SDS011;20617;49.476;10.986;2022-09-12T09:23:00;16.52;;;14.35;;
12878;SDS011;20617;49.476;10.986;2022-09-12T09:25:14;13.80;;;12.40;;
12878;SDS011;20617;49.476;10.986;2022-09-12T09:27:25;15.95;;;13.48;;
12878;SDS011;20617;49.476;10.986;2022-09-12T09:29:42;17.10;;;14.18;;
12878;SDS011;20617;49.476;10.986;2022-09-12T09:31:51;12.05;;;10.85;;
12878;SDS011;20617;49.476;10.986;2022-09-12T09:33:58;12.68;;;11.38;;
12878;SDS011;20617;49.476;10.986;2022-09-12T09:36:06;16.35;;;14.70;;
12878;SDS011;20617;49.476;10.986;2022-09-12T09:38:27;18.02;;;16.17;;
12878;SDS011;20617;49.476;10.986;2022-09-12T09:40:44;16.17;;;12.70;;
12878;SDS011;20617;49.476;10.986;2022-09-12T09:42:59;18.73;;;14.27;;
12878;SDS011;20617;49.476;10.986;2022-09-12T09:45:12;14.98;;;13.48;;
12878;SDS011;20617;49.476;10.986;2022-09-12T09:47:20;14.02;;;12.63;;
12878;SDS011;20617;49.476;10.986;2022-09-12T09:49:25;15.00;;;13.25;;
12878;SDS011;20617;49.476;10.986;2022-09-12T09:51:32;14.30;;;12.90;;
12878;SDS011;20617;49.476;10.986;2022-09-12T09:53:42;14.65;;;12.18;;
12878;SDS011;20617;49.476;10.986;2022-09-12T09:55:51;14.38;;;12.65;;
12878;SDS011;20617;49.476;10.986;2022-09-12T09:57:59;13.90;;;11.80;;
12878;SDS011;20617;49.476;10.986;2022-09-12T10:00:18;13.25;;;11.65;;
12878;SDS011;20617;49.476;10.986;2022-09-12T10:02:25;10.38;;;9.38;;
12878;SDS011;20617;49.476;10.986;2022-09-12T10:04:30;10.45;;;9.23;;
12878;SDS011;20617;49.476;10.986;2022-09-12T10:06:42;11.95;;;9.98;;
12878;SDS011;20617;49.476;10.986;2022-09-12T10:08:52;8.10;;;7.30;;
12878;SDS011;20617;49.476;10.986;2022-09-12T10:11:21;10.13;;;9.02;;
12878;SDS011;20617;49.476;10.986;2022-09-12T10:13:35;11.18;;;10.07;;
12878;SDS011;20617;49.476;10.986;2022-09-12T10:15:48;12.10;;;9.30;;
12878;SDS011;20617;49.476;10.986;2022-09-12T10:18:00;8.75;;;7.95;;
12878;SDS011;20617;49.476;10.986;2022-09-12T10:22:32;7.70;;;6.90;;
12878;SDS011;20617;49.476;10.986;2022-09-12T10:24:39;6.30;;;5.70;;
12878;SDS011;20617;49.476;10.986;2022-09-12T10:26:48;5.90;;;5.30;;
12878;SDS011;20617;49.476;10.986;2022-09-12T10:28:57;6.10;;;5.50;;
12878;SDS011;20617;49.476;10.986;2022-09-12T10:31:12;5.53;;;4.95;;
12878;SDS011;20617;49.476;10.986;2022-09-12T10:33:19;6.35;;;5.30;;
12878;SDS011;20617;49.476;10.986;2022-09-12T10:35:27;6.50;;;5.85;;
12878;SDS011;20617;49.476;10.986;2022-09-12T10:37:34;8.15;;;7.32;;
12878;SDS011;20617;49.476;10.986;2022-09-12T10:39:48;8.23;;;7.30;;
12878;SDS011;20617;49.476;10.986;2022-09-12T10:41:56;12.77;;;7.18;;
12878;SDS011;20617;49.476;10.986;2022-09-12T10:44:04;7.93;;;6.40;;
12878;SDS011;20617;49.476;10.986;2022-09-12T10:46:22;8.25;;;6.18;;
12878;SDS011;20617;49.476;10.986;2022-09-12T10:48:31;7.55;;;5.80;;
12878;SDS011;20617;49.476;10.986;2022-09-12T10:52:43;6.25;;;5.65;;
12878;SDS011;20617;49.476;10.986;2022-09-12T10:54:54;5.68;;;4.80;;
12878;SDS011;20617;49.476;10.986;2022-09-12T10:57:12;6.72;;;6.13;;
12878;SDS011;20617;49.476;10.986;2022-09-12T10:59:30;5.53;;;5.03;;
12878;SDS011;20617;49.476;10.986;2022-09-12T11:01:44;5.90;;;5.05;;
12878;SDS011;20617;49.476;10.986;2022-09-12T11:03:58;6.15;;;5.57;;
12878;SDS011;20617;49.476;10.986;2022-09-12T11:06:34;8.15;;;6.00;;
12878;SDS011;20617;49.476;10.986;2022-09-12T11:08:49;7.57;;;6.82;;
12878;SDS011;20617;49.476;10.986;2022-09-12T11:11:05;6.30;;;5.70;;
12878;SDS011;20617;49.476;10.986;2022-09-12T11:13:20;5.50;;;4.97;;
12878;SDS011;20617;49.476;10.986;2022-09-12T11:15:40;6.63;;;5.72;;
12878;SDS011;20617;49.476;10.986;2022-09-12T11:18:05;5.22;;;4.72;;
12878;SDS011;20617;49.476;10.986;2022-09-12T11:20:26;8.13;;;5.40;;
12878;SDS011;20617;49.476;10.986;2022-09-12T11:22:44;7.07;;;5.20;;
12878;SDS011;20617;49.476;10.986;2022-09-12T11:25:11;6.07;;;5.47;;
12878;SDS011;20617;49.476;10.986;2022-09-12T11:27:30;4.60;;;4.10;;
12878;SDS011;20617;49.476;10.986;2022-09-12T11:29:50;8.50;;;4.80;;
12878;SDS011;20617;49.476;10.986;2022-09-12T11:32:09;6.95;;;4.88;;
12878;SDS011;20617;49.476;10.986;2022-09-12T11:34:31;3.97;;;3.30;;
12878;SDS011;20617;49.476;10.986;2022-09-12T11:36:45;10.77;;;5.40;;
12878;SDS011;20617;49.476;10.986;2022-09-12T11:39:13;23.48;;;6.43;;
12878;SDS011;20617;49.476;10.986;2022-09-12T11:41:20;6.50;;;4.53;;
12878;SDS011;20617;49.476;10.986;2022-09-12T11:43:34;4.30;;;3.70;;
12878;SDS011;20617;49.476;10.986;2022-09-12T11:45:43;4.97;;;4.50;;
12878;SDS011;20617;49.476;10.986;2022-09-12T11:47:51;5.13;;;4.43;;
12878;SDS011;20617;49.476;10.986;2022-09-12T11:49:58;4.70;;;4.20;;
12878;SDS011;20617;49.476;10.986;2022-09-12T11:52:10;6.07;;;4.38;;
12878;SDS011;20617;49.476;10.986;2022-09-12T11:54:20;6.00;;;4.38;;
12878;SDS011;20617;49.476;10.986;2022-09-12T11:56:27;5.10;;;4.55;;
12878;SDS011;20617;49.476;10.986;2022-09-12T11:58:35;5.35;;;4.32;;
12878;SDS011;20617;49.476;10.986;2022-09-12T12:00:43;4.47;;;4.07;;
12878;SDS011;20617;49.476;10.986;2022-09-12T12:02:54;7.78;;;4.68;;
12878;SDS011;20617;49.476;10.986;2022-09-12T12:05:14;8.07;;;4.88;;
12878;SDS011;20617;49.476;10.986;2022-09-12T12:07:23;4.88;;;3.97;;
12878;SDS011;20617;49.476;10.986;2022-09-12T12:09:28;5.30;;;4.80;;
12878;SDS011;20617;49.476;10.986;2022-09-12T12:11:34;4.78;;;4.05;;
12878;SDS011;20617;49.476;10.986;2022-09-12T12:13:47;4.55;;;4.15;;
12878;SDS011;20617;49.476;10.986;2022-09-12T12:15:56;5.47;;;4.63;;
12878;SDS011;20617;49.476;10.986;2022-09-12T12:18:05;6.18;;;5.13;;
12878;SDS011;20617;49.476;10.986;2022-09-12T12:20:14;5.43;;;4.93;;
12878;SDS011;20617;49.476;10.986;2022-09-12T12:22:21;5.47;;;4.25;;
12878;SDS011;20617;49.476;10.986;2022-09-12T12:24:27;4.78;;;4.30;;
12878;SDS011;20617;49.476;10.986;2022-09-12T12:26:42;4.78;;;4.05;;
12878;SDS011;20617;49.476;10.986;2022-09-12T12:29:00;4.80;;;3.83;;
12878;SDS011;20617;49.476;10.986;2022-09-12T12:31:05;4.95;;;4.45;;
12878;SDS011;20617;49.476;10.986;2022-09-12T12:36:00;5.15;;;3.50;;
12878;SDS011;20617;49.476;10.986;2022-09-12T12:40:31;4.35;;;3.40;;
12878;SDS011;20617;49.476;10.986;2022-09-12T12:48:15;5.90;;;4.75;;
12878;SDS011;20617;49.476;10.986;2022-09-12T12:50:22;6.78;;;3.88;;
12878;SDS011;20617;49.476;10.986;2022-09-12T12:52:30;3.92;;;3.53;;
12878;SDS011;20617;49.476;10.986;2022-09-12T12:57:04;6.63;;;4.18;;
12878;SDS011;20617;49.476;10.986;2022-09-12T12:59:20;6.55;;;4.50;;
12878;SDS011;20617;49.476;10.986;2022-09-12T13:01:27;5.70;;;4.53;;
12878;SDS011;20617;49.476;10.986;2022-09-12T13:03:43;5.25;;;4.40;;
12878;SDS011;20617;49.476;10.986;2022-09-12T13:05:51;5.40;;;4.45;;
12878;SDS011;20617;49.476;10.986;2022-09-12T13:08:05;6.57;;;4.95;;
12878;SDS011;20617;49.476;10.986;2022-09-12T13:10:19;4.47;;;3.47;;
12878;SDS011;20617;49.476;10.986;2022-09-12T13:12:28;3.83;;;3.22;;
12878;SDS011;20617;49.476;10.986;2022-09-12T13:14:46;3.85;;;3.35;;
12878;SDS011;20617;49.476;10.986;2022-09-12T13:16:53;3.85;;;3.30;;
12878;SDS011;20617;49.476;10.986;2022-09-12T13:19:05;3.75;;;2.83;;
12878;SDS011;20617;49.476;10.986;2022-09-12T13:21:19;3.97;;;3.17;;
12878;SDS011;20617;49.476;10.986;2022-09-12T13:23:25;4.45;;;3.58;;